sensor_id;sensor_type;location;lat;lon;timestamp;pressure;altitude;pressure_sealevel;temperature;humidity
12146;BME280;6136;47.032;15.398;2023-05-25T00:01:21;97830.47;;;13.94;100.00
12146;BME280;6136;47.032;15.398;2023-05-25T00:03:52;97840.28;;;13.93;100.00
12146;BME280;6136;47.032;15.398;2023-05-25T00:06:22;97837.75;;;13.92;100.00
12146;BME280;6136;47.032;15.398;2023-05-25T00:08:51;97839.31;;;13.94;100.00
12146;BME280;6136;47.032;15.398;2023-05-25T00:11:21;97837.00;;;13.90;100.00
12146;BME280;6136;47.032;15.398;2023-05-25T00:13:50;97836.91;;;13.91;100.00
12146;BME280;6136;47.032;15.398;2023-05-25T00:16:19;97841.13;;;13.94;100.00
12146;BME280;6136;47.032;15.398;2023-05-25T00:18:47;97836.81;;;13.93;100.00
12146;BME280;6136;47.032;15.398;2023-05-25T00:21:16;97840.19;;;13.95;100.00
12146;BME280;6136;47.032;15.398;2023-05-25T00:23:47;97844.34;;;13.99;100.00
12146;BME280;6136;47.032;15.398;2023-05-25T00:26:15;97844.09;;;14.02;100.00
12146;BME280;6136;47.032;15.398;2023-05-25T00:28:44;97836.00;;;14.04;100.00
12146;BME280;6136;47.032;15.398;2023-05-25T00:31:12;97841.34;;;14.04;100.00
12146;BME280;6136;47.032;15.398;2023-05-25T00:33:40;97849.22;;;14.05;100.00
12146;BME280;6136;47.032;15.398;2023-05-25T00:36:08;97844.09;;;14.02;100.00
12146;BME280;6136;47.032;15.398;2023-05-25T00:38:36;97854.56;;;14.05;100.00
12146;BME280;6136;47.032;15.398;2023-05-25T00:41:06;97851.91;;;14.05;100.00
12146;BME280;6136;47.032;15.398;2023-05-25T00:43:34;97839.31;;;14.07;100.00
12146;BME280;6136;47.032;15.398;2023-05-25T00:46:02;97844.41;;;14.10;100.00
12146;BME280;6136;47.032;15.398;2023-05-25T00:48:31;97841.66;;;14.12;100.00
12146;BME280;6136;47.032;15.398;2023-05-25T00:51:00;97852.19;;;14.13;100.00
12146;BME280;6136;47.032;15.398;2023-05-25T00:53:29;97849.75;;;14.10;100.00
12146;BME280;6136;47.032;15.398;2023-05-25T00:56:02;97848.78;;;14.11;100.00
12146;BME280;6136;47.032;15.398;2023-05-25T00:58:34;97843.16;;;14.03;100.00
12146;BME280;6136;47.032;15.398;2023-05-25T01:01:05;97852.66;;;14.07;100.00
12146;BME280;6136;47.032;15.398;2023-05-25T01:03:40;97844.09;;;14.02;100.00
12146;BME280;6136;47.032;15.398;2023-05-25T01:06:14;97850.94;;;14.06;100.00
12146;BME280;6136;47.032;15.398;2023-05-25T01:08:46;97850.69;;;14.09;100.00
12146;BME280;6136;47.032;15.398;2023-05-25T01:11:19;97847.31;;;14.07;100.00
12146;BME280;6136;47.032;15.398;2023-05-25T01:13:51;97847.31;;;14.07;100.00
12146;BME280;6136;47.032;15.398;2023-05-25T01:16:20;97849.44;;;14.02;100.00
12146;BME280;6136;47.032;15.398;2023-05-25T01:18:49;97843.50;;;13.98;100.00
12146;BME280;6136;47.032;15.398;2023-05-25T01:21:22;97845.50;;;13.95;100.00
12146;BME280;6136;47.032;15.398;2023-05-25T01:24:02;97843.09;;;13.92;100.00
12146;BME280;6136;47.032;15.398;2023-05-25T01:26:35;97850.53;;;13.87;100.00
12146;BME280;6136;47.032;15.398;2023-05-25T01:29:06;97853.94;;;13.89;100.00
12146;BME280;6136;47.032;15.398;2023-05-25T01:31:35;97846.28;;;13.84;100.00
12146;BME280;6136;47.032;15.398;2023-05-25T01:34:04;97848.81;;;13.86;100.00
12146;BME280;6136;47.032;15.398;2023-05-25T01:36:34;97843.84;;;13.81;100.00
12146;BME280;6136;47.032;15.398;2023-05-25T01:39:04;97849.25;;;13.80;100.00
12146;BME280;6136;47.032;15.398;2023-05-25T01:41:33;97851.19;;;13.78;100.00
12146;BME280;6136;47.032;15.398;2023-05-25T01:44:02;97852.34;;;13.74;100.00
12146;BME280;6136;47.032;15.398;2023-05-25T01:46:32;97830.75;;;13.66;100.00
12146;BME280;6136;47.032;15.398;2023-05-25T01:49:11;97838.63;;;13.67;100.00
12146;BME280;6136;47.032;15.398;2023-05-25T01:51:52;97846.94;;;13.63;100.00
12146;BME280;6136;47.032;15.398;2023-05-25T01:54:29;97839.25;;;13.58;100.00
12146;BME280;6136;47.032;15.398;2023-05-25T01:57:04;97834.19;;;13.55;100.00
12146;BME280;6136;47.032;15.398;2023-05-25T01:59:34;97840.56;;;13.52;100.00
12146;BME280;6136;47.032;15.398;2023-05-25T02:02:04;97853.09;;;13.50;100.00
12146;BME280;6136;47.032;15.398;2023-05-25T02:04:33;97851.63;;;13.46;100.00
12146;BME280;6136;47.032;15.398;2023-05-25T02:07:04;97853.75;;;13.41;100.00
12146;BME280;6136;47.032;15.398;2023-05-25T02:09:32;97855.88;;;13.36;100.00
12146;BME280;6136;47.032;15.398;2023-05-25T02:12:01;97845.66;;;13.30;100.00
12146;BME280;6136;47.032;15.398;2023-05-25T02:14:29;97847.03;;;13.23;100.00
12146;BME280;6136;47.032;15.398;2023-05-25T02:16:57;97841.19;;;13.18;100.00
12146;BME280;6136;47.032;15.398;2023-05-25T02:19:27;97829.03;;;13.14;100.00
12146;BME280;6136;47.032;15.398;2023-05-25T02:21:56;97835.59;;;13.08;100.00
12146;BME280;6136;47.032;15.398;2023-05-25T02:24:25;97840.47;;;13.02;100.00
12146;BME280;6136;47.032;15.398;2023-05-25T02:26:54;97840.78;;;12.97;100.00
12146;BME280;6136;47.032;15.398;2023-05-25T02:29:22;97836.44;;;12.96;100.00
12146;BME280;6136;47.032;15.398;2023-05-25T02:31:50;97824.69;;;12.86;100.00
12146;BME280;6136;47.032;15.398;2023-05-25T02:34:19;97827.88;;;12.78;100.00
12146;BME280;6136;47.032;15.398;2023-05-25T02:36:48;97840.00;;;12.82;100.00
12146;BME280;6136;47.032;15.398;2023-05-25T02:39:16;97840.63;;;12.73;100.00
12146;BME280;6136;47.032;15.398;2023-05-25T02:41:46;97848.03;;;12.68;100.00
12146;BME280;6136;47.032;15.398;2023-05-25T02:44:14;97853.00;;;12.60;100.00
12146;BME280;6136;47.032;15.398;2023-05-25T02:46:42;97855.03;;;12.57;100.00
12146;BME280;6136;47.032;15.398;2023-05-25T02:49:11;97859.31;;;12.59;100.00
12146;BME280;6136;47.032;15.398;2023-05-25T02:51:39;97860.34;;;12.57;100.00
12146;BME280;6136;47.032;15.398;2023-05-25T02:54:08;97858.72;;;12.54;100.00
12146;BME280;6136;47.032;15.398;2023-05-25T02:56:36;97860.00;;;12.49;100.00
12146;BME280;6136;47.032;15.398;2023-05-25T02:59:06;97865.81;;;12.41;100.00
12146;BME280;6136;47.032;15.398;2023-05-25T03:01:34;97872.38;;;12.35;100.00
12146;BME280;6136;47.032;15.398;2023-05-25T03:04:04;97870.22;;;12.28;100.00
12146;BME280;6136;47.032;15.398;2023-05-25T03:06:35;97881.59;;;12.30;100.00
12146;BME280;6136;47.032;15.398;2023-05-25T03:09:10;97871.16;;;12.27;100.00
12146;BME280;6136;47.032;15.398;2023-05-25T03:11:39;97881.25;;;12.22;100.00
12146;BME280;6136;47.032;15.398;2023-05-25T03:14:12;97877.81;;;12.20;100.00
12146;BME280;6136;47.032;15.398;2023-05-25T03:16:44;97881.81;;;12.13;100.00
12146;BME280;6136;47.032;15.398;2023-05-25T03:19:13;97889.41;;;12.04;100.00
12146;BME280;6136;47.032;15.398;2023-05-25T03:21:41;97878.78;;;12.04;100.00
12146;BME280;6136;47.032;15.398;2023-05-25T03:24:10;97887.72;;;12.03;100.00
12146;BME280;6136;47.032;15.398;2023-05-25T03:26:38;97896.72;;;12.01;100.00
12146;BME280;6136;47.032;15.398;2023-05-25T03:29:07;97890.75;;;11.97;100.00
12146;BME280;6136;47.032;15.398;2023-05-25T03:31:37;97901.38;;;11.97;100.00
12146;BME280;6136;47.032;15.398;2023-05-25T03:34:06;97901.69;;;11.93;100.00
12146;BME280;6136;47.032;15.398;2023-05-25T03:36:36;97903.34;;;11.94;100.00
12146;BME280;6136;47.032;15.398;2023-05-25T03:39:05;97907.25;;;12.02;100.00
12146;BME280;6136;47.032;15.398;2023-05-25T03:41:35;97900.69;;;12.08;100.00
12146;BME280;6136;47.032;15.398;2023-05-25T03:44:04;97917.75;;;12.18;100.00
12146;BME280;6136;47.032;15.398;2023-05-25T03:46:33;97912.91;;;12.25;100.00
12146;BME280;6136;47.032;15.398;2023-05-25T03:49:02;97912.53;;;12.31;100.00
12146;BME280;6136;47.032;15.398;2023-05-25T03:51:31;97922.09;;;12.48;100.00
12146;BME280;6136;47.032;15.398;2023-05-25T03:53:59;97922.63;;;12.53;100.00
12146;BME280;6136;47.032;15.398;2023-05-25T03:56:29;97930.09;;;12.60;100.00
12146;BME280;6136;47.032;15.398;2023-05-25T03:58:58;97935.06;;;12.66;100.00
12146;BME280;6136;47.032;15.398;2023-05-25T04:01:26;97934.66;;;12.72;100.00
12146;BME280;6136;47.032;15.398;2023-05-25T04:03:55;97932.44;;;12.79;100.00
12146;BME280;6136;47.032;15.398;2023-05-25T04:06:25;97933.09;;;12.82;100.00
12146;BME280;6136;47.032;15.398;2023-05-25T04:08:55;97932.13;;;12.83;100.00
12146;BME280;6136;47.032;15.398;2023-05-25T04:11:25;97939.84;;;12.88;100.00
12146;BME280;6136;47.032;15.398;2023-05-25T04:13:53;97942.84;;;12.96;100.00
12146;BME280;6136;47.032;15.398;2023-05-25T04:16:24;97944.84;;;12.93;100.00
12146;BME280;6136;47.032;15.398;2023-05-25T04:18:53;97944.47;;;12.84;100.00
12146;BME280;6136;47.032;15.398;2023-05-25T04:21:22;97947.91;;;12.87;100.00
12146;BME280;6136;47.032;15.398;2023-05-25T04:23:51;97957.59;;;12.88;100.00
12146;BME280;6136;47.032;15.398;2023-05-25T04:26:20;97951.88;;;12.94;100.00
12146;BME280;6136;47.032;15.398;2023-05-25T04:28:51;97955.16;;;12.97;100.00
12146;BME280;6136;47.032;15.398;2023-05-25T04:31:49;97959.00;;;12.93;100.00
12146;BME280;6136;47.032;15.398;2023-05-25T04:34:28;97959.84;;;12.94;100.00
12146;BME280;6136;47.032;15.398;2023-05-25T04:37:04;97959.84;;;12.94;100.00
12146;BME280;6136;47.032;15.398;2023-05-25T04:39:37;97954.53;;;12.94;100.00
12146;BME280;6136;47.032;15.398;2023-05-25T04:42:05;97956.59;;;13.03;100.00
12146;BME280;6136;47.032;15.398;2023-05-25T04:44:34;97954.47;;;13.08;100.00
12146;BME280;6136;47.032;15.398;2023-05-25T04:47:05;97965.28;;;13.19;100.00
12146;BME280;6136;47.032;15.398;2023-05-25T04:49:34;97965.25;;;13.33;100.00
12146;BME280;6136;47.032;15.398;2023-05-25T04:52:03;97968.75;;;13.34;100.00
12146;BME280;6136;47.032;15.398;2023-05-25T04:54:33;97961.94;;;13.42;100.00
12146;BME280;6136;47.032;15.398;2023-05-25T04:57:03;97964.41;;;13.58;100.00
12146;BME280;6136;47.032;15.398;2023-05-25T04:59:32;97966.91;;;13.74;100.00
12146;BME280;6136;47.032;15.398;2023-05-25T05:02:00;97970.94;;;13.79;100.00
12146;BME280;6136;47.032;15.398;2023-05-25T05:04:28;97967.22;;;13.82;100.00
12146;BME280;6136;47.032;15.398;2023-05-25T05:06:56;97962.84;;;13.81;100.00
12146;BME280;6136;47.032;15.398;2023-05-25T05:09:28;97969.25;;;13.91;100.00
12146;BME280;6136;47.032;15.398;2023-05-25T05:11:58;97968.91;;;14.08;100.00
12146;BME280;6136;47.032;15.398;2023-05-25T05:14:31;97969.47;;;14.13;100.00
12146;BME280;6136;47.032;15.398;2023-05-25T05:16:59;97968.59;;;14.25;100.00
12146;BME280;6136;47.032;15.398;2023-05-25T05:19:28;97959.00;;;14.35;100.00
12146;BME280;6136;47.032;15.398;2023-05-25T05:21:57;97967.09;;;14.47;100.00
12146;BME280;6136;47.032;15.398;2023-05-25T05:24:26;97967.91;;;14.60;100.00
12146;BME280;6136;47.032;15.398;2023-05-25T05:26:54;97967.25;;;14.69;100.00
12146;BME280;6136;47.032;15.398;2023-05-25T05:29:48;97967.50;;;14.66;100.00
12146;BME280;6136;47.032;15.398;2023-05-25T05:32:16;97967.06;;;14.72;100.00
12146;BME280;6136;47.032;15.398;2023-05-25T05:34:44;97968.78;;;14.60;100.00
12146;BME280;6136;47.032;15.398;2023-05-25T05:37:27;97964.97;;;14.52;100.00
12146;BME280;6136;47.032;15.398;2023-05-25T05:39:55;97972.50;;;14.70;100.00
12146;BME280;6136;47.032;15.398;2023-05-25T05:42:23;97962.03;;;14.67;100.00
12146;BME280;6136;47.032;15.398;2023-05-25T05:44:53;97978.72;;;14.95;100.00
12146;BME280;6136;47.032;15.398;2023-05-25T05:47:21;97978.84;;;15.17;100.00
12146;BME280;6136;47.032;15.398;2023-05-25T05:49:49;97989.16;;;14.98;100.00
12146;BME280;6136;47.032;15.398;2023-05-25T05:52:18;97983.03;;;15.32;100.00
12146;BME280;6136;47.032;15.398;2023-05-25T05:54:46;97992.75;;;15.33;100.00
12146;BME280;6136;47.032;15.398;2023-05-25T05:57:15;97986.44;;;15.34;100.00
12146;BME280;6136;47.032;15.398;2023-05-25T05:59:43;97990.50;;;15.51;100.00
12146;BME280;6136;47.032;15.398;2023-05-25T06:02:13;97984.34;;;15.85;100.00
12146;BME280;6136;47.032;15.398;2023-05-25T06:04:41;97976.59;;;16.16;100.00
12146;BME280;6136;47.032;15.398;2023-05-25T06:07:10;97982.16;;;15.90;100.00
12146;BME280;6136;47.032;15.398;2023-05-25T06:09:39;97978.06;;;16.09;100.00
12146;BME280;6136;47.032;15.398;2023-05-25T06:12:08;97989.28;;;15.79;100.00
12146;BME280;6136;47.032;15.398;2023-05-25T06:14:36;97988.16;;;16.16;100.00
12146;BME280;6136;47.032;15.398;2023-05-25T06:17:05;97986.25;;;16.29;100.00
12146;BME280;6136;47.032;15.398;2023-05-25T06:19:35;97989.50;;;16.33;100.00
12146;BME280;6136;47.032;15.398;2023-05-25T06:22:03;97986.22;;;16.18;100.00
12146;BME280;6136;47.032;15.398;2023-05-25T06:24:32;97990.47;;;16.32;100.00
12146;BME280;6136;47.032;15.398;2023-05-25T06:27:00;97989.75;;;16.19;100.00
12146;BME280;6136;47.032;15.398;2023-05-25T06:29:29;97998.47;;;15.99;100.00
12146;BME280;6136;47.032;15.398;2023-05-25T06:31:57;97998.00;;;16.16;100.00
12146;BME280;6136;47.032;15.398;2023-05-25T06:34:26;97997.78;;;16.19;100.00
12146;BME280;6136;47.032;15.398;2023-05-25T06:36:56;97996.19;;;16.16;100.00
12146;BME280;6136;47.032;15.398;2023-05-25T06:39:25;98006.06;;;16.27;100.00
12146;BME280;6136;47.032;15.398;2023-05-25T06:41:56;98004.09;;;16.40;100.00
12146;BME280;6136;47.032;15.398;2023-05-25T06:44:28;97998.50;;;16.54;100.00
12146;BME280;6136;47.032;15.398;2023-05-25T06:47:00;97998.06;;;16.60;100.00
12146;BME280;6136;47.032;15.398;2023-05-25T06:49:29;97994.16;;;16.76;100.00
12146;BME280;6136;47.032;15.398;2023-05-25T06:51:59;97994.50;;;16.82;100.00
12146;BME280;6136;47.032;15.398;2023-05-25T06:54:27;98007.28;;;16.90;100.00
12146;BME280;6136;47.032;15.398;2023-05-25T06:56:55;98001.34;;;16.86;100.00
12146;BME280;6136;47.032;15.398;2023-05-25T06:59:23;97996.34;;;16.93;100.00
12146;BME280;6136;47.032;15.398;2023-05-25T07:01:52;97999.81;;;17.04;100.00
12146;BME280;6136;47.032;15.398;2023-05-25T07:04:22;98001.75;;;17.25;100.00
12146;BME280;6136;47.032;15.398;2023-05-25T07:06:50;98007.88;;;17.48;100.00
12146;BME280;6136;47.032;15.398;2023-05-25T07:09:20;97992.22;;;17.64;100.00
12146;BME280;6136;47.032;15.398;2023-05-25T07:11:48;98013.88;;;17.72;100.00
12146;BME280;6136;47.032;15.398;2023-05-25T07:14:16;98008.72;;;17.80;100.00
12146;BME280;6136;47.032;15.398;2023-05-25T07:16:45;98013.31;;;17.89;100.00
12146;BME280;6136;47.032;15.398;2023-05-25T07:19:13;98002.34;;;17.92;100.00
12146;BME280;6136;47.032;15.398;2023-05-25T07:21:42;98004.16;;;18.12;100.00
12146;BME280;6136;47.032;15.398;2023-05-25T07:24:10;97991.06;;;18.19;100.00
12146;BME280;6136;47.032;15.398;2023-05-25T07:26:40;98006.38;;;18.28;100.00
12146;BME280;6136;47.032;15.398;2023-05-25T07:29:10;98001.78;;;18.40;100.00
12146;BME280;6136;47.032;15.398;2023-05-25T07:31:38;98004.59;;;18.59;100.00
12146;BME280;6136;47.032;15.398;2023-05-25T07:34:06;98005.53;;;18.79;100.00
12146;BME280;6136;47.032;15.398;2023-05-25T07:36:34;98007.41;;;18.88;100.00
12146;BME280;6136;47.032;15.398;2023-05-25T07:39:03;98011.31;;;18.74;100.00
12146;BME280;6136;47.032;15.398;2023-05-25T07:41:31;98005.00;;;18.94;100.00
12146;BME280;6136;47.032;15.398;2023-05-25T07:44:00;98002.63;;;19.01;100.00
12146;BME280;6136;47.032;15.398;2023-05-25T07:46:28;98017.94;;;19.20;100.00
12146;BME280;6136;47.032;15.398;2023-05-25T07:48:57;98015.84;;;19.23;100.00
12146;BME280;6136;47.032;15.398;2023-05-25T07:51:28;98009.00;;;19.10;100.00
12146;BME280;6136;47.032;15.398;2023-05-25T07:53:58;98015.41;;;19.18;100.00
12146;BME280;6136;47.032;15.398;2023-05-25T07:56:27;98012.88;;;19.36;100.00
12146;BME280;6136;47.032;15.398;2023-05-25T07:58:55;98013.50;;;19.59;100.00
12146;BME280;6136;47.032;15.398;2023-05-25T08:01:25;98014.94;;;19.92;100.00
12146;BME280;6136;47.032;15.398;2023-05-25T08:03:53;98016.84;;;20.28;100.00
12146;BME280;6136;47.032;15.398;2023-05-25T08:06:22;98007.75;;;20.48;100.00
12146;BME280;6136;47.032;15.398;2023-05-25T08:08:50;98012.28;;;20.58;100.00
12146;BME280;6136;47.032;15.398;2023-05-25T08:11:22;98012.28;;;20.48;99.02
12146;BME280;6136;47.032;15.398;2023-05-25T08:13:52;98015.34;;;20.72;97.52
12146;BME280;6136;47.032;15.398;2023-05-25T08:16:21;98021.91;;;21.24;87.95
12146;BME280;6136;47.032;15.398;2023-05-25T08:18:50;98026.78;;;21.11;90.11
12146;BME280;6136;47.032;15.398;2023-05-25T08:21:19;98023.19;;;21.48;87.00
12146;BME280;6136;47.032;15.398;2023-05-25T08:23:47;98013.50;;;21.27;90.80
12146;BME280;6136;47.032;15.398;2023-05-25T08:26:16;98008.63;;;21.41;86.97
12146;BME280;6136;47.032;15.398;2023-05-25T08:29:04;98009.94;;;21.72;83.83
12146;BME280;6136;47.032;15.398;2023-05-25T08:31:33;98015.03;;;21.75;86.03
12146;BME280;6136;47.032;15.398;2023-05-25T08:34:02;98018.19;;;21.88;85.08
12146;BME280;6136;47.032;15.398;2023-05-25T08:36:31;98009.34;;;21.78;85.89
12146;BME280;6136;47.032;15.398;2023-05-25T08:39:02;98008.00;;;22.18;80.17
12146;BME280;6136;47.032;15.398;2023-05-25T08:41:31;98010.19;;;22.40;76.13
12146;BME280;6136;47.032;15.398;2023-05-25T08:44:00;98014.53;;;22.33;78.17
12146;BME280;6136;47.032;15.398;2023-05-25T08:46:33;98016.22;;;22.34;77.05
12146;BME280;6136;47.032;15.398;2023-05-25T08:49:08;98016.56;;;21.95;77.72
12146;BME280;6136;47.032;15.398;2023-05-25T08:51:40;98008.38;;;21.87;76.23
12146;BME280;6136;47.032;15.398;2023-05-25T08:54:12;98010.69;;;22.18;77.75
12146;BME280;6136;47.032;15.398;2023-05-25T08:56:43;98009.28;;;22.31;74.61
12146;BME280;6136;47.032;15.398;2023-05-25T08:59:24;98009.94;;;22.77;68.42
12146;BME280;6136;47.032;15.398;2023-05-25T09:01:57;98012.56;;;22.95;66.64
12146;BME280;6136;47.032;15.398;2023-05-25T09:04:31;98013.28;;;23.13;69.06
12146;BME280;6136;47.032;15.398;2023-05-25T09:07:01;98015.41;;;22.93;68.06
12146;BME280;6136;47.032;15.398;2023-05-25T09:09:36;98013.72;;;23.26;69.67
12146;BME280;6136;47.032;15.398;2023-05-25T09:12:06;98009.78;;;23.63;65.71
12146;BME280;6136;47.032;15.398;2023-05-25T09:14:35;98012.16;;;23.74;69.08
12146;BME280;6136;47.032;15.398;2023-05-25T09:17:05;98009.97;;;24.02;57.31
12146;BME280;6136;47.032;15.398;2023-05-25T09:19:35;98008.94;;;23.94;64.93
12146;BME280;6136;47.032;15.398;2023-05-25T09:22:04;98008.47;;;24.07;59.81
12146;BME280;6136;47.032;15.398;2023-05-25T09:24:42;98005.09;;;24.21;67.25
12146;BME280;6136;47.032;15.398;2023-05-25T09:27:12;97998.25;;;24.66;56.76
12146;BME280;6136;47.032;15.398;2023-05-25T09:29:40;98000.59;;;24.77;57.78
12146;BME280;6136;47.032;15.398;2023-05-25T09:32:08;98004.38;;;24.60;60.91
12146;BME280;6136;47.032;15.398;2023-05-25T09:34:38;98004.13;;;24.77;58.14
12146;BME280;6136;47.032;15.398;2023-05-25T09:37:10;98001.69;;;25.07;63.88
12146;BME280;6136;47.032;15.398;2023-05-25T09:39:40;97996.41;;;25.13;63.43
12146;BME280;6136;47.032;15.398;2023-05-25T09:42:09;98001.19;;;25.11;60.41
12146;BME280;6136;47.032;15.398;2023-05-25T09:44:37;98010.25;;;25.58;56.54
12146;BME280;6136;47.032;15.398;2023-05-25T09:47:06;98004.22;;;25.78;54.82
12146;BME280;6136;47.032;15.398;2023-05-25T09:49:34;98002.94;;;26.12;49.72
12146;BME280;6136;47.032;15.398;2023-05-25T09:52:05;98005.78;;;25.96;51.37
12146;BME280;6136;47.032;15.398;2023-05-25T09:54:35;98002.28;;;25.87;53.76
12146;BME280;6136;47.032;15.398;2023-05-25T09:57:04;98003.72;;;25.98;51.06
12146;BME280;6136;47.032;15.398;2023-05-25T09:59:32;97997.41;;;26.05;53.98
12146;BME280;6136;47.032;15.398;2023-05-25T10:02:01;98006.06;;;26.23;55.87
12146;BME280;6136;47.032;15.398;2023-05-25T10:04:29;98005.41;;;26.44;53.63
12146;BME280;6136;47.032;15.398;2023-05-25T10:06:58;98008.38;;;26.12;49.52
12146;BME280;6136;47.032;15.398;2023-05-25T10:09:29;98006.44;;;26.43;50.25
12146;BME280;6136;47.032;15.398;2023-05-25T10:11:58;97998.28;;;26.58;51.09
12146;BME280;6136;47.032;15.398;2023-05-25T10:14:28;97999.06;;;26.81;55.02
12146;BME280;6136;47.032;15.398;2023-05-25T10:16:58;97994.50;;;27.11;53.37
12146;BME280;6136;47.032;15.398;2023-05-25T10:19:31;97997.28;;;26.88;49.74
12146;BME280;6136;47.032;15.398;2023-05-25T10:22:02;97995.31;;;25.93;52.26
12146;BME280;6136;47.032;15.398;2023-05-25T10:24:41;97998.50;;;25.34;54.54
12146;BME280;6136;47.032;15.398;2023-05-25T10:27:16;97993.25;;;25.41;54.96
12146;BME280;6136;47.032;15.398;2023-05-25T10:29:54;97999.56;;;26.10;52.70
12146;BME280;6136;47.032;15.398;2023-05-25T10:32:23;97995.03;;;26.25;53.74
12146;BME280;6136;47.032;15.398;2023-05-25T10:34:52;97992.09;;;26.64;52.89
12146;BME280;6136;47.032;15.398;2023-05-25T10:37:22;97988.00;;;27.27;47.55
12146;BME280;6136;47.032;15.398;2023-05-25T10:39:52;97976.84;;;27.07;47.13
12146;BME280;6136;47.032;15.398;2023-05-25T10:42:24;97979.47;;;27.15;49.78
12146;BME280;6136;47.032;15.398;2023-05-25T10:44:53;97974.59;;;27.11;52.47
12146;BME280;6136;47.032;15.398;2023-05-25T10:47:22;97978.72;;;27.57;49.49
12146;BME280;6136;47.032;15.398;2023-05-25T10:49:53;97980.81;;;27.55;51.90
12146;BME280;6136;47.032;15.398;2023-05-25T10:52:25;97980.34;;;28.30;44.83
12146;BME280;6136;47.032;15.398;2023-05-25T10:54:56;97969.69;;;28.14;47.03
12146;BME280;6136;47.032;15.398;2023-05-25T10:57:25;97962.56;;;27.20;49.54
12146;BME280;6136;47.032;15.398;2023-05-25T10:59:54;97958.44;;;28.24;45.53
12146;BME280;6136;47.032;15.398;2023-05-25T11:02:27;97969.84;;;28.62;43.58
12146;BME280;6136;47.032;15.398;2023-05-25T11:05:29;97954.03;;;28.78;42.64
12146;BME280;6136;47.032;15.398;2023-05-25T11:07:58;97964.63;;;28.60;43.48
12146;BME280;6136;47.032;15.398;2023-05-25T11:10:53;97958.06;;;28.54;46.77
12146;BME280;6136;47.032;15.398;2023-05-25T11:13:33;97968.69;;;27.58;46.62
12146;BME280;6136;47.032;15.398;2023-05-25T11:16:16;97960.31;;;28.44;45.39
12146;BME280;6136;47.032;15.398;2023-05-25T11:18:49;97955.81;;;28.30;44.54
12146;BME280;6136;47.032;15.398;2023-05-25T11:21:42;97951.63;;;28.13;46.18
12146;BME280;6136;47.032;15.398;2023-05-25T11:24:16;97951.53;;;28.00;49.11
12146;BME280;6136;47.032;15.398;2023-05-25T11:26:56;97942.38;;;28.63;43.71
12146;BME280;6136;47.032;15.398;2023-05-25T11:29:29;97938.72;;;28.77;49.36
12146;BME280;6136;47.032;15.398;2023-05-25T11:31:58;97931.78;;;29.16;43.33
12146;BME280;6136;47.032;15.398;2023-05-25T11:34:27;97935.91;;;29.05;41.18
12146;BME280;6136;47.032;15.398;2023-05-25T11:36:58;97932.34;;;28.70;41.52
12146;BME280;6136;47.032;15.398;2023-05-25T11:39:29;97928.75;;;28.98;42.78
12146;BME280;6136;47.032;15.398;2023-05-25T11:42:04;97924.66;;;29.21;42.50
12146;BME280;6136;47.032;15.398;2023-05-25T11:44:34;97927.31;;;29.49;41.09
12146;BME280;6136;47.032;15.398;2023-05-25T11:47:06;97927.59;;;28.79;43.86
12146;BME280;6136;47.032;15.398;2023-05-25T11:49:38;97914.66;;;28.53;44.79
12146;BME280;6136;47.032;15.398;2023-05-25T11:52:08;97919.91;;;28.89;45.45
12146;BME280;6136;47.032;15.398;2023-05-25T11:54:36;97904.47;;;28.40;46.43
12146;BME280;6136;47.032;15.398;2023-05-25T11:57:15;97908.16;;;28.26;46.42
12146;BME280;6136;47.032;15.398;2023-05-25T11:59:47;97902.66;;;28.19;45.48
12146;BME280;6136;47.032;15.398;2023-05-25T12:02:17;97906.06;;;27.79;45.44
12146;BME280;6136;47.032;15.398;2023-05-25T12:04:52;97897.84;;;27.15;46.60
12146;BME280;6136;47.032;15.398;2023-05-25T12:07:21;97899.59;;;27.59;45.40
12146;BME280;6136;47.032;15.398;2023-05-25T12:09:50;97895.53;;;27.33;46.38
12146;BME280;6136;47.032;15.398;2023-05-25T12:12:19;97885.28;;;27.35;48.06
12146;BME280;6136;47.032;15.398;2023-05-25T12:14:48;97878.06;;;27.64;49.34
12146;BME280;6136;47.032;15.398;2023-05-25T12:17:18;97880.72;;;28.06;46.81
12146;BME280;6136;47.032;15.398;2023-05-25T12:19:48;97873.63;;;28.12;46.21
12146;BME280;6136;47.032;15.398;2023-05-25T12:22:17;97876.56;;;28.10;46.20
12146;BME280;6136;47.032;15.398;2023-05-25T12:24:45;97877.53;;;27.32;49.32
12146;BME280;6136;47.032;15.398;2023-05-25T12:27:18;97873.06;;;26.59;50.68
12146;BME280;6136;47.032;15.398;2023-05-25T12:29:48;97877.84;;;26.28;51.16
12146;BME280;6136;47.032;15.398;2023-05-25T12:32:18;97866.97;;;26.28;50.36
12146;BME280;6136;47.032;15.398;2023-05-25T12:34:47;97870.13;;;26.76;49.75
12146;BME280;6136;47.032;15.398;2023-05-25T12:37:19;97865.69;;;27.04;48.69
12146;BME280;6136;47.032;15.398;2023-05-25T12:39:48;97871.34;;;26.73;48.14
12146;BME280;6136;47.032;15.398;2023-05-25T12:42:17;97871.44;;;26.65;51.25
12146;BME280;6136;47.032;15.398;2023-05-25T12:44:45;97857.34;;;26.76;49.75
12146;BME280;6136;47.032;15.398;2023-05-25T12:47:16;97860.88;;;27.06;46.82
12146;BME280;6136;47.032;15.398;2023-05-25T12:49:47;97861.50;;;26.72;49.68
12146;BME280;6136;47.032;15.398;2023-05-25T12:52:32;97861.22;;;26.82;52.55
12146;BME280;6136;47.032;15.398;2023-05-25T12:55:22;97859.72;;;26.79;53.22
12146;BME280;6136;47.032;15.398;2023-05-25T12:57:53;97846.69;;;26.75;51.62
12146;BME280;6136;47.032;15.398;2023-05-25T13:00:23;97845.44;;;26.92;49.01
12146;BME280;6136;47.032;15.398;2023-05-25T13:02:53;97842.84;;;26.69;50.61
12146;BME280;6136;47.032;15.398;2023-05-25T13:05:23;97836.19;;;26.72;48.19
12146;BME280;6136;47.032;15.398;2023-05-25T13:07:53;97828.38;;;26.83;52.00
12146;BME280;6136;47.032;15.398;2023-05-25T13:10:22;97831.97;;;26.69;49.19